Time;durP1;ratioP1;P1;durP2;ratioP2;P2;SDS_P1;SDS_P2;PMS_P1;PMS_P2;Temp;Humidity;BMP_temperature;BMP_pressure;BME280_temperature;BME280_humidity;BME280_pressure;Samples;Min_cycle;Max_cycle;Signal;HPM_P1;HPM_P2
2024/04/01 00:01:52;;;;;;;30.02;14.70;;;10.70;99.90;;;;;;5000723;28;20060;-65
2024/04/01 00:04:18;;;;;;;28.73;12.90;;;10.70;99.90;;;;;;5004533;28;20239;-64
2024/04/01 00:06:44;;;;;;;21.50;13.18;;;10.70;99.90;;;;;;4995977;28;20050;-65
2024/04/01 00:09:09;;;;;;;23.25;12.10;;;10.70;99.90;;;;;;5001527;28;20534;-65
2024/04/01 00:11:35;;;;;;;28.73;13.52;;;10.60;99.90;;;;;;5004811;28;20044;-65
2024/04/01 00:14:01;;;;;;;20.48;11.90;;;10.60;99.90;;;;;;5002228;28;20046;-65
2024/04/01 00:16:27;;;;;;;28.45;12.60;;;10.60;99.90;;;;;;5000395;28;20492;-65
2024/04/01 00:18:52;;;;;;;21.50;11.95;;;10.50;99.90;;;;;;4999623;28;20054;-65
2024/04/01 00:21:18;;;;;;;27.20;12.55;;;10.40;99.90;;;;;;5004861;28;20144;-64
2024/04/01 00:23:46;;;;;;;19.25;12.13;;;10.40;99.90;;;;;;5001189;28;20318;-65
2024/04/01 00:26:11;;;;;;;22.63;11.77;;;10.30;99.90;;;;;;4987185;28;20042;-65
2024/04/01 00:28:37;;;;;;;24.90;11.50;;;10.20;99.90;;;;;;5004638;28;20050;-65
2024/04/01 00:31:03;;;;;;;23.67;9.52;;;10.30;99.90;;;;;;4997919;28;20109;-65
2024/04/01 00:33:29;;;;;;;17.77;9.90;;;10.10;99.90;;;;;;5005760;28;20042;-64
2024/04/01 00:35:54;;;;;;;16.67;8.20;;;10.10;99.90;;;;;;5000435;28;20042;-64
2024/04/01 00:38:20;;;;;;;9.23;6.05;;;10.10;99.90;;;;;;4995348;28;20068;-65
2024/04/01 00:40:46;;;;;;;11.20;6.07;;;10.10;99.90;;;;;;5004505;28;20072;-64
2024/04/01 00:43:11;;;;;;;9.60;5.22;;;10.10;99.90;;;;;;5003192;28;20479;-65
2024/04/01 00:45:46;;;;;;;12.88;5.75;;;10.00;99.90;;;;;;5004216;28;20179;-64
2024/04/01 00:48:14;;;;;;;7.95;4.95;;;10.00;99.90;;;;;;5002107;28;20427;-64
2024/04/01 00:50:42;;;;;;;14.55;5.18;;;10.00;99.90;;;;;;5003292;28;20049;-65
2024/04/01 00:53:11;;;;;;;12.70;5.57;;;10.10;99.90;;;;;;4993023;28;20431;-65
2024/04/01 00:55:41;;;;;;;10.20;4.68;;;10.10;99.90;;;;;;5004168;28;20061;-65
2024/04/01 00:58:08;;;;;;;12.18;4.70;;;10.10;99.90;;;;;;4999540;28;20046;-64
2024/04/01 01:00:34;;;;;;;7.88;4.53;;;10.10;99.90;;;;;;5000793;28;20057;-64
2024/04/01 01:03:01;;;;;;;11.57;5.18;;;10.20;99.90;;;;;;4997852;28;20039;-64
2024/04/01 01:05:28;;;;;;;7.93;4.45;;;10.20;99.90;;;;;;4998253;28;20092;-64
2024/04/01 01:07:54;;;;;;;12.00;4.47;;;10.10;99.90;;;;;;4997730;28;20049;-65
2024/04/01 01:10:22;;;;;;;8.98;4.80;;;10.20;99.90;;;;;;5002060;28;20453;-64
2024/04/01 01:12:48;;;;;;;6.15;3.97;;;10.20;99.90;;;;;;4989849;28;20072;-64
2024/04/01 01:15:13;;;;;;;8.63;4.15;;;10.20;99.90;;;;;;4987337;28;20073;-64
2024/04/01 01:17:40;;;;;;;7.60;4.32;;;10.20;99.90;;;;;;5000415;28;20665;-65
2024/04/01 01:20:12;;;;;;;9.73;4.70;;;10.20;99.90;;;;;;4996264;28;20041;-64
2024/04/01 01:22:43;;;;;;;9.48;4.13;;;10.20;99.90;;;;;;4992548;28;20059;-64
2024/04/01 01:25:10;;;;;;;10.27;4.15;;;10.10;99.90;;;;;;4999720;28;20572;-64
2024/04/01 01:27:40;;;;;;;5.60;4.32;;;10.10;99.90;;;;;;4998373;28;20408;-64
2024/04/01 01:30:16;;;;;;;7.82;4.55;;;10.00;99.90;;;;;;4999082;28;20092;-64
2024/04/01 01:32:50;;;;;;;7.10;4.10;;;10.00;99.90;;;;;;4998143;28;20116;-64
2024/04/01 01:35:23;;;;;;;5.47;3.50;;;9.90;99.90;;;;;;5001125;28;20060;-64
2024/04/01 01:37:50;;;;;;;7.13;4.00;;;9.80;99.90;;;;;;5001848;28;20500;-64
2024/04/01 01:40:16;;;;;;;7.05;3.40;;;9.80;99.90;;;;;;4998045;28;20064;-64
2024/04/01 01:42:42;;;;;;;6.80;3.80;;;9.80;99.90;;;;;;5005076;28;20432;-65
2024/04/01 01:45:07;;;;;;;6.00;3.53;;;9.70;99.90;;;;;;5002419;28;20049;-64
2024/04/01 01:47:37;;;;;;;8.05;3.72;;;9.60;99.90;;;;;;4998984;28;20150;-64
2024/04/01 01:50:05;;;;;;;5.97;3.35;;;9.60;99.90;;;;;;4996730;28;20054;-64
2024/04/01 01:52:32;;;;;;;9.50;3.53;;;9.50;99.90;;;;;;5002277;28;20073;-64
2024/04/01 01:54:58;;;;;;;8.05;3.83;;;9.60;99.90;;;;;;5002326;28;20129;-64
2024/04/01 01:57:25;;;;;;;6.28;4.13;;;9.60;99.90;;;;;;4993975;28;20054;-64
2024/04/01 01:59:50;;;;;;;13.00;4.72;;;9.60;99.90;;;;;;4993269;28;20385;-64
2024/04/01 02:02:17;;;;;;;6.57;3.63;;;9.60;99.90;;;;;;4999910;28;20052;-64
2024/04/01 02:04:43;;;;;;;10.02;3.88;;;9.50;99.90;;;;;;5001508;28;20085;-64
2024/04/01 02:07:09;;;;;;;10.25;3.70;;;9.60;99.90;;;;;;4999593;28;20112;-64
2024/04/01 02:09:35;;;;;;;8.48;3.90;;;9.60;99.90;;;;;;5003696;28;20037;-64
2024/04/01 02:12:02;;;;;;;6.97;3.38;;;9.50;99.90;;;;;;5000729;28;20214;-64
2024/04/01 02:14:28;;;;;;;8.63;3.17;;;9.60;99.90;;;;;;4994661;28;20117;-65
2024/04/01 02:16:53;;;;;;;8.95;3.30;;;9.50;99.90;;;;;;5004013;28;20432;-64
2024/04/01 02:19:19;;;;;;;7.30;3.78;;;9.40;99.90;;;;;;4999974;28;20045;-64
2024/04/01 02:21:48;;;;;;;6.07;3.20;;;9.20;99.90;;;;;;5004320;28;20663;-64
2024/04/01 02:24:19;;;;;;;7.43;3.38;;;9.10;99.90;;;;;;4998541;28;20502;-64
2024/04/01 02:26:46;;;;;;;4.72;3.33;;;9.10;99.90;;;;;;4990107;28;20054;-64
2024/04/01 02:29:12;;;;;;;10.40;3.38;;;9.00;99.90;;;;;;4994913;28;20041;-65
2024/04/01 02:31:38;;;;;;;6.05;3.38;;;9.00;99.90;;;;;;5002225;28;20045;-64
2024/04/01 02:34:04;;;;;;;8.15;4.35;;;9.00;99.90;;;;;;4984795;28;20044;-65
2024/04/01 02:36:29;;;;;;;8.13;3.67;;;9.00;99.90;;;;;;4992183;28;20053;-65
2024/04/01 02:38:55;;;;;;;8.70;3.97;;;9.00;99.90;;;;;;5003542;28;20038;-64
2024/04/01 02:41:21;;;;;;;16.23;4.82;;;9.10;99.90;;;;;;5013813;28;20069;-64
2024/04/01 02:43:47;;;;;;;11.00;4.78;;;9.10;99.90;;;;;;4995308;28;20476;-65
2024/04/01 02:46:14;;;;;;;12.90;5.40;;;9.20;99.90;;;;;;4999025;28;20050;-64
2024/04/01 02:48:39;;;;;;;13.68;5.38;;;9.20;99.90;;;;;;5002979;28;20052;-64
2024/04/01 02:51:05;;;;;;;22.92;5.53;;;9.40;99.90;;;;;;5001930;28;20041;-64
2024/04/01 02:53:31;;;;;;;12.13;5.53;;;9.40;99.90;;;;;;4995519;28;20053;-64
2024/04/01 02:55:57;;;;;;;11.27;5.65;;;9.30;99.90;;;;;;5002007;28;20527;-64
2024/04/01 02:58:22;;;;;;;10.75;5.72;;;9.30;99.90;;;;;;4996460;28;20054;-64
2024/04/01 03:00:48;;;;;;;13.63;5.50;;;9.40;99.90;;;;;;5002142;28;20044;-64
2024/04/01 03:03:14;;;;;;;11.65;6.28;;;9.30;99.90;;;;;;4994277;28;20049;-64
2024/04/01 03:05:40;;;;;;;19.33;6.45;;;9.30;99.90;;;;;;4998130;28;20043;-64
2024/04/01 03:08:07;;;;;;;16.08;6.38;;;9.40;99.90;;;;;;5000554;28;20049;-65
2024/04/01 03:10:37;;;;;;;13.10;6.07;;;9.40;99.90;;;;;;4996295;28;20052;-64
2024/04/01 03:13:08;;;;;;;16.25;6.47;;;9.40;99.90;;;;;;5003557;28;20088;-64
2024/04/01 03:15:34;;;;;;;18.73;7.53;;;9.50;99.90;;;;;;5000422;28;20085;-64
2024/04/01 03:18:00;;;;;;;16.70;7.40;;;9.40;99.90;;;;;;4989138;28;20882;-64
2024/04/01 03:20:26;;;;;;;16.00;7.65;;;9.40;99.90;;;;;;5001371;28;20582;-64
2024/04/01 03:22:52;;;;;;;15.20;7.82;;;9.40;99.90;;;;;;4996158;28;20373;-64
2024/04/01 03:25:18;;;;;;;19.85;7.45;;;9.50;99.90;;;;;;4999566;28;20049;-64
2024/04/01 03:27:44;;;;;;;17.90;7.00;;;9.40;99.90;;;;;;5000550;28;20049;-64
2024/04/01 03:30:10;;;;;;;13.32;7.20;;;9.30;99.90;;;;;;4992666;28;20046;-64
2024/04/01 03:32:36;;;;;;;18.38;7.68;;;9.30;99.90;;;;;;4991992;28;20054;-64
2024/04/01 03:35:04;;;;;;;10.68;6.38;;;9.10;99.90;;;;;;4991465;28;20069;-64
2024/04/01 03:37:30;;;;;;;11.50;7.00;;;9.10;99.90;;;;;;4994532;28;20046;-64
2024/04/01 03:39:56;;;;;;;14.38;7.00;;;9.10;99.90;;;;;;4997633;28;20068;-64
2024/04/01 03:42:22;;;;;;;14.02;6.97;;;9.00;99.90;;;;;;4981201;28;20057;-65
2024/04/01 03:44:53;;;;;;;14.43;7.25;;;9.00;99.90;;;;;;4997082;28;20049;-64
2024/04/01 03:47:21;;;;;;;11.52;6.88;;;8.80;99.90;;;;;;4991959;28;20057;-64
2024/04/01 03:49:47;;;;;;;15.60;6.97;;;8.80;99.90;;;;;;5000382;28;20430;-65
2024/04/01 03:52:13;;;;;;;11.45;6.30;;;8.70;99.90;;;;;;4998965;28;20108;-64
2024/04/01 03:54:39;;;;;;;9.70;5.25;;;8.70;99.90;;;;;;5000274;28;20474;-64
2024/04/01 03:57:05;;;;;;;8.73;5.38;;;8.70;99.90;;;;;;5002078;28;20050;-64
2024/04/01 03:59:31;;;;;;;9.95;5.03;;;8.50;99.90;;;;;;4993694;28;20049;-64
2024/04/01 04:01:56;;;;;;;12.98;5.60;;;8.50;99.90;;;;;;4999685;28;20050;-64
2024/04/01 04:04:22;;;;;;;6.75;5.10;;;8.40;99.90;;;;;;4991797;28;20782;-64
2024/04/01 04:06:48;;;;;;;7.88;4.93;;;8.30;99.90;;;;;;4998108;28;20049;-64
2024/04/01 04:09:17;;;;;;;10.27;6.20;;;8.30;99.90;;;;;;5001862;28;20407;-64
2024/04/01 04:11:49;;;;;;;11.73;6.30;;;8.30;99.90;;;;;;4981865;28;20618;-64
2024/04/01 04:14:36;;;;;;;11.55;7.30;;;8.30;99.90;;;;;;4997912;28;20054;-64
2024/04/01 04:17:02;;;;;;;10.98;6.20;;;8.30;99.90;;;;;;4992019;28;20054;-64
2024/04/01 04:19:28;;;;;;;10.95;5.70;;;8.20;99.90;;;;;;4995922;28;20046;-64
2024/04/01 04:21:55;;;;;;;10.30;6.10;;;8.30;99.90;;;;;;5004060;28;20579;-64
2024/04/01 04:24:24;;;;;;;9.75;6.25;;;8.20;99.90;;;;;;4993553;28;20503;-64
2024/04/01 04:26:51;;;;;;;12.82;6.22;;;8.30;99.90;;;;;;4994156;28;20594;-64
2024/04/01 04:29:16;;;;;;;12.10;5.35;;;8.20;99.90;;;;;;4996875;28;20050;-64
2024/04/01 04:31:55;;;;;;;12.00;6.38;;;8.30;99.90;;;;;;4998804;28;20042;-64
2024/04/01 04:34:23;;;;;;;14.55;6.43;;;8.40;99.90;;;;;;4992323;28;20065;-64
2024/04/01 04:36:50;;;;;;;16.30;7.68;;;8.40;99.90;;;;;;4996219;28;20128;-64
2024/04/01 04:39:24;;;;;;;17.67;8.00;;;8.40;99.90;;;;;;4996985;28;20115;-64
2024/04/01 04:41:53;;;;;;;16.35;7.93;;;8.50;99.90;;;;;;4998349;28;20545;-65
2024/04/01 04:44:19;;;;;;;19.70;9.00;;;8.40;99.90;;;;;;4995469;28;20057;-64
2024/04/01 04:46:45;;;;;;;21.42;8.38;;;8.60;99.90;;;;;;4994048;28;20034;-64
2024/04/01 04:49:11;;;;;;;18.75;7.95;;;8.50;99.90;;;;;;5004995;28;20531;-64
2024/04/01 04:51:37;;;;;;;15.40;8.30;;;8.70;99.90;;;;;;4998832;28;20045;-64
2024/04/01 04:54:04;;;;;;;17.08;9.43;;;8.60;99.90;;;;;;5004727;28;20045;-64
2024/04/01 04:56:30;;;;;;;18.08;8.80;;;8.60;99.90;;;;;;5001250;28;20058;-64
2024/04/01 04:58:56;;;;;;;19.45;9.20;;;8.60;99.90;;;;;;4983091;28;20488;-64
2024/04/01 05:01:22;;;;;;;26.05;9.45;;;8.70;99.90;;;;;;4995793;28;20057;-65
2024/04/01 05:03:48;;;;;;;16.15;9.32;;;8.80;99.90;;;;;;5001836;28;20121;-64
2024/04/01 05:06:14;;;;;;;25.13;10.02;;;8.70;99.90;;;;;;5004996;28;20058;-64
2024/04/01 05:08:40;;;;;;;17.98;9.40;;;8.80;99.90;;;;;;5000173;28;20042;-64
2024/04/01 05:11:07;;;;;;;18.38;9.25;;;8.90;99.90;;;;;;4991378;28;20114;-64
2024/04/01 05:13:36;;;;;;;18.42;10.55;;;8.80;99.90;;;;;;4996976;28;20455;-64
2024/04/01 05:16:08;;;;;;;16.88;9.32;;;9.00;99.90;;;;;;4999339;28;20518;-64
2024/04/01 05:18:34;;;;;;;20.60;9.90;;;8.90;99.90;;;;;;5000606;28;20053;-64
2024/04/01 05:21:00;;;;;;;16.85;10.10;;;9.00;99.90;;;;;;4991916;28;20074;-64
2024/04/01 05:23:26;;;;;;;18.77;9.73;;;8.90;99.90;;;;;;5000810;28;20396;-65
2024/04/01 05:25:52;;;;;;;21.92;10.48;;;9.00;99.90;;;;;;4990176;28;20044;-64
2024/04/01 05:28:18;;;;;;;15.77;10.02;;;8.90;99.90;;;;;;5004368;28;20045;-64
2024/04/01 05:30:44;;;;;;;21.98;10.48;;;9.00;99.90;;;;;;4995870;28;20052;-64
2024/04/01 05:33:09;;;;;;;23.38;11.38;;;8.90;99.90;;;;;;5000720;28;20122;-64
2024/04/01 05:35:37;;;;;;;23.80;11.75;;;9.00;99.90;;;;;;5002573;28;20080;-64
2024/04/01 05:38:07;;;;;;;23.05;11.35;;;8.90;99.90;;;;;;4979769;28;20521;-64
2024/04/01 05:40:33;;;;;;;23.75;10.20;;;8.80;99.90;;;;;;5004039;28;20132;-64
2024/04/01 05:42:58;;;;;;;21.60;10.27;;;8.90;99.90;;;;;;4990284;28;20121;-64
2024/04/01 05:45:24;;;;;;;18.00;10.85;;;8.90;99.90;;;;;;5002255;28;20041;-64
2024/04/01 05:47:51;;;;;;;27.67;11.00;;;9.00;99.90;;;;;;4996947;28;20050;-64
2024/04/01 05:50:20;;;;;;;18.85;10.30;;;8.90;99.90;;;;;;5000216;28;20053;-64
2024/04/01 05:52:46;;;;;;;17.85;10.20;;;8.90;99.90;;;;;;5002008;28;20056;-64
2024/04/01 05:55:13;;;;;;;19.50;9.85;;;8.90;99.90;;;;;;4997856;28;21009;-64
2024/04/01 05:57:39;;;;;;;15.60;9.70;;;8.90;99.90;;;;;;4999744;28;20051;-64
2024/04/01 06:00:05;;;;;;;18.63;9.88;;;8.80;99.90;;;;;;4998182;28;20053;-64
2024/04/01 06:02:31;;;;;;;20.20;10.48;;;8.90;99.90;;;;;;4993864;28;20057;-64
2024/04/01 06:04:57;;;;;;;24.95;11.27;;;8.90;99.90;;;;;;4992874;28;20042;-64
2024/04/01 06:07:22;;;;;;;20.92;10.35;;;8.80;99.90;;;;;;4995855;28;20139;-64
2024/04/01 06:09:48;;;;;;;27.05;10.48;;;8.80;99.90;;;;;;4999265;28;20389;-64
2024/04/01 06:12:14;;;;;;;20.15;10.90;;;8.90;99.90;;;;;;4994263;28;20038;-64
2024/04/01 06:14:40;;;;;;;22.15;11.60;;;8.90;99.90;;;;;;4997859;28;20528;-64
2024/04/01 06:17:06;;;;;;;23.13;11.15;;;8.90;99.90;;;;;;4976581;28;20046;-64
2024/04/01 06:19:31;;;;;;;23.38;10.50;;;8.90;99.90;;;;;;4990195;28;20041;-64
2024/04/01 06:21:57;;;;;;;22.42;11.02;;;9.00;99.90;;;;;;4989043;28;20049;-64
2024/04/01 06:24:23;;;;;;;22.25;11.75;;;9.10;99.90;;;;;;4997628;28;20050;-64
2024/04/01 06:26:48;;;;;;;22.45;12.05;;;9.20;99.90;;;;;;4990173;28;20066;-64
2024/04/01 06:29:14;;;;;;;25.13;11.80;;;9.10;99.90;;;;;;4997521;28;20506;-64
2024/04/01 06:31:40;;;;;;;20.70;11.32;;;9.10;99.90;;;;;;4994397;28;20034;-64
2024/04/01 06:34:05;;;;;;;24.23;11.93;;;9.20;99.90;;;;;;4986488;28;20030;-64
2024/04/01 06:36:32;;;;;;;23.55;12.02;;;9.20;99.90;;;;;;4991141;28;20495;-64
2024/04/01 06:38:58;;;;;;;25.52;11.98;;;9.20;99.90;;;;;;4986627;28;20200;-64
2024/04/01 06:41:24;;;;;;;30.42;11.80;;;9.30;99.90;;;;;;4993560;28;20046;-65
2024/04/01 06:43:50;;;;;;;32.85;12.00;;;9.30;99.90;;;;;;4992139;28;20069;-64
2024/04/01 06:46:16;;;;;;;21.80;11.88;;;9.30;99.90;;;;;;4985808;28;20054;-64
2024/04/01 06:48:42;;;;;;;25.90;12.25;;;9.40;99.90;;;;;;4992583;28;20050;-64
2024/04/01 06:51:09;;;;;;;23.95;13.10;;;9.30;99.90;;;;;;5004372;28;20554;-64
2024/04/01 06:53:35;;;;;;;22.30;11.25;;;9.30;99.90;;;;;;4993263;28;20054;-64
2024/04/01 06:56:00;;;;;;;24.13;12.55;;;9.50;99.90;;;;;;5001686;28;20237;-64
2024/04/01 06:58:26;;;;;;;19.95;11.60;;;9.40;99.90;;;;;;4990054;28;20545;-64
2024/04/01 07:00:52;;;;;;;22.98;11.75;;;9.50;99.90;;;;;;4996970;28;20151;-64
2024/04/01 07:03:18;;;;;;;25.15;11.77;;;9.40;99.90;;;;;;4997960;28;20420;-64
2024/04/01 07:05:44;;;;;;;22.60;12.98;;;9.40;99.90;;;;;;4989356;28;20077;-64
2024/04/01 07:08:09;;;;;;;23.00;11.95;;;9.50;99.90;;;;;;4993212;28;20046;-64
2024/04/01 07:10:35;;;;;;;26.40;12.10;;;9.60;99.90;;;;;;4998040;28;20046;-65
2024/04/01 07:13:01;;;;;;;26.08;12.20;;;9.50;99.90;;;;;;4999887;28;20088;-64
2024/04/01 07:15:27;;;;;;;23.98;12.25;;;9.70;99.90;;;;;;4990126;28;20082;-64
2024/04/01 07:17:53;;;;;;;28.38;12.27;;;9.60;99.90;;;;;;4998197;28;20521;-64
2024/04/01 07:20:18;;;;;;;20.63;12.35;;;9.80;99.90;;;;;;4996394;28;20058;-64
2024/04/01 07:22:50;;;;;;;23.17;12.40;;;9.80;99.90;;;;;;4997302;28;20042;-64
2024/04/01 07:25:16;;;;;;;19.67;12.95;;;9.90;99.90;;;;;;4988458;28;20097;-64
2024/04/01 07:27:42;;;;;;;26.10;13.52;;;9.80;99.90;;;;;;4985804;28;20090;-64
2024/04/01 07:30:08;;;;;;;27.30;14.93;;;9.90;99.90;;;;;;4989637;28;20045;-64
2024/04/01 07:32:37;;;;;;;19.70;13.48;;;10.10;99.90;;;;;;4999916;28;20055;-64
2024/04/01 07:35:07;;;;;;;26.15;13.15;;;10.10;99.90;;;;;;4998157;28;20455;-64
2024/04/01 07:37:33;;;;;;;23.90;13.60;;;10.10;99.90;;;;;;4993427;28;20046;-64
2024/04/01 07:39:59;;;;;;;28.17;12.88;;;10.20;99.90;;;;;;4995199;28;20050;-64
2024/04/01 07:42:24;;;;;;;29.25;13.68;;;10.20;99.90;;;;;;4994133;28;20149;-64
2024/04/01 07:44:51;;;;;;;26.67;12.77;;;10.30;99.90;;;;;;4984139;28;20117;-64
2024/04/01 07:47:18;;;;;;;29.67;13.30;;;10.30;99.90;;;;;;4986668;28;20046;-64
2024/04/01 07:49:44;;;;;;;27.13;12.63;;;10.40;99.90;;;;;;4991929;28;20464;-64
2024/04/01 07:52:10;;;;;;;22.70;12.23;;;10.40;99.90;;;;;;4989610;28;20041;-64
2024/04/01 07:54:36;;;;;;;19.92;12.23;;;10.50;99.90;;;;;;4994756;28;20065;-64
2024/04/01 07:57:02;;;;;;;24.35;12.45;;;10.50;99.90;;;;;;4995742;28;20086;-64
2024/04/01 07:59:32;;;;;;;29.60;12.50;;;10.50;99.90;;;;;;4998778;28;20054;-64
2024/04/01 08:01:58;;;;;;;25.58;13.80;;;10.50;99.90;;;;;;4999066;28;20076;-64
2024/04/01 08:04:24;;;;;;;21.98;13.07;;;10.50;99.90;;;;;;4999264;28;20073;-64
2024/04/01 08:06:52;;;;;;;26.65;13.52;;;10.50;99.90;;;;;;4992417;28;20103;-64
2024/04/01 08:09:18;;;;;;;25.10;13.30;;;10.50;99.90;;;;;;4991045;28;20061;-64
2024/04/01 08:11:46;;;;;;;23.70;11.85;;;10.40;99.90;;;;;;4995947;28;20129;-64
2024/04/01 08:14:12;;;;;;;20.77;11.10;;;10.50;99.90;;;;;;4998795;28;20061;-64
2024/04/01 08:16:38;;;;;;;23.67;11.70;;;10.40;99.90;;;;;;5003819;28;20038;-64
2024/04/01 08:19:04;;;;;;;15.38;10.38;;;10.30;99.90;;;;;;5001297;28;20107;-64
2024/04/01 08:21:29;;;;;;;22.92;12.57;;;10.40;99.90;;;;;;5001538;28;20149;-65
2024/04/01 08:23:55;;;;;;;26.55;11.95;;;10.40;99.90;;;;;;5005471;28;20556;-64
2024/04/01 08:26:21;;;;;;;24.50;11.15;;;10.40;99.90;;;;;;5004068;28;20065;-64
2024/04/01 08:28:46;;;;;;;21.88;11.32;;;10.40;99.90;;;;;;5000101;28;20478;-65
2024/04/01 08:31:12;;;;;;;18.48;11.02;;;10.40;99.90;;;;;;5000171;28;20046;-64
2024/04/01 08:33:38;;;;;;;22.23;11.05;;;10.40;99.90;;;;;;5003962;28;20053;-65
2024/04/01 08:36:04;;;;;;;28.98;10.77;;;10.40;99.90;;;;;;5003112;28;20030;-64
2024/04/01 08:38:30;;;;;;;19.88;10.32;;;10.40;99.90;;;;;;4998808;28;20049;-65
2024/04/01 08:41:00;;;;;;;26.45;10.30;;;10.50;99.90;;;;;;4987644;28;20427;-64
2024/04/01 08:43:40;;;;;;;23.17;11.05;;;10.50;99.90;;;;;;4990625;28;20512;-64
2024/04/01 08:46:06;;;;;;;16.25;10.73;;;10.40;99.90;;;;;;4998891;28;20073;-64
2024/04/01 08:48:32;;;;;;;24.13;10.82;;;10.40;99.90;;;;;;5000388;28;20126;-64
2024/04/01 08:51:05;;;;;;;21.33;11.32;;;10.40;99.90;;;;;;4990717;28;20046;-64
2024/04/01 08:53:56;;;;;;;19.52;10.50;;;10.40;99.90;;;;;;4988499;28;20061;-64
2024/04/01 08:56:22;;;;;;;16.58;10.93;;;10.50;99.90;;;;;;4987810;28;20066;-64
2024/04/01 08:58:48;;;;;;;22.50;10.98;;;10.40;99.90;;;;;;4992261;28;20063;-64
2024/04/01 09:01:13;;;;;;;20.50;11.07;;;10.50;99.90;;;;;;4993767;28;20317;-64
2024/04/01 09:03:41;;;;;;;21.95;11.35;;;10.50;99.90;;;;;;4993550;28;20506;-64
2024/04/01 09:06:07;;;;;;;22.35;11.50;;;10.40;99.90;;;;;;4995067;28;20402;-64
2024/04/01 09:08:32;;;;;;;22.17;10.85;;;10.40;99.90;;;;;;5000700;28;20058;-64
2024/04/01 09:10:59;;;;;;;15.57;11.07;;;10.40;99.90;;;;;;4999127;28;20076;-64
2024/04/01 09:13:24;;;;;;;23.75;11.43;;;10.40;99.90;;;;;;4987749;28;20180;-64
2024/04/01 09:15:51;;;;;;;19.52;10.73;;;10.40;99.90;;;;;;4991160;28;20055;-64
2024/04/01 09:18:17;;;;;;;20.95;11.30;;;10.40;99.90;;;;;;4984931;28;20052;-64
2024/04/01 09:20:44;;;;;;;19.38;11.85;;;10.30;99.90;;;;;;4993296;28;20044;-64
2024/04/01 09:23:10;;;;;;;18.30;10.88;;;10.40;99.90;;;;;;4987685;28;20049;-64
2024/04/01 09:25:36;;;;;;;24.05;11.35;;;10.30;99.90;;;;;;4999667;28;20403;-64
2024/04/01 09:28:02;;;;;;;22.13;11.15;;;10.40;99.90;;;;;;4988551;28;20049;-65
2024/04/01 09:30:28;;;;;;;22.40;10.98;;;10.30;99.90;;;;;;4997424;28;20049;-65
2024/04/01 09:32:54;;;;;;;20.77;10.75;;;10.30;99.90;;;;;;5000796;28;20051;-65
2024/04/01 09:35:24;;;;;;;17.70;10.82;;;10.40;99.90;;;;;;4996642;28;20139;-64
2024/04/01 09:37:51;;;;;;;20.77;11.95;;;10.30;99.90;;;;;;4997301;28;20042;-65
2024/04/01 09:40:17;;;;;;;20.40;10.88;;;10.40;99.90;;;;;;4991978;28;20045;-65
2024/04/01 09:42:45;;;;;;;16.38;10.65;;;10.30;99.90;;;;;;4994224;28;20046;-65
2024/04/01 09:45:12;;;;;;;21.38;10.93;;;10.40;99.90;;;;;;4994543;28;20412;-64
2024/04/01 09:47:39;;;;;;;15.70;10.23;;;10.40;99.90;;;;;;4988767;28;20046;-64
2024/04/01 09:50:05;;;;;;;21.10;10.30;;;10.50;99.90;;;;;;4996733;28;20080;-64
2024/04/01 09:52:32;;;;;;;23.35;11.05;;;10.40;99.90;;;;;;4991614;28;20054;-64
2024/04/01 09:55:05;;;;;;;18.25;10.50;;;10.50;99.90;;;;;;5001878;28;20053;-65
2024/04/01 09:57:55;;;;;;;18.33;11.02;;;10.40;99.90;;;;;;4989298;28;20473;-64
2024/04/01 10:00:30;;;;;;;18.45;10.90;;;10.50;99.90;;;;;;4991118;28;20566;-64
2024/04/01 10:03:07;;;;;;;22.80;10.45;;;10.50;99.90;;;;;;5000654;28;20056;-64
2024/04/01 10:05:42;;;;;;;21.48;10.07;;;10.50;99.90;;;;;;4994651;28;20046;-65
2024/04/01 10:08:32;;;;;;;16.60;10.40;;;10.50;99.90;;;;;;5002318;28;20504;-65
2024/04/01 10:11:19;;;;;;;16.30;10.07;;;10.50;99.90;;;;;;4988913;28;20431;-64
2024/04/01 10:14:00;;;;;;;15.93;10.05;;;10.50;99.90;;;;;;4985497;28;20074;-64
2024/04/01 10:16:44;;;;;;;31.83;11.95;;;10.60;99.90;;;;;;4999283;28;20176;-64
2024/04/01 10:19:28;;;;;;;21.35;10.55;;;10.60;99.90;;;;;;5000428;28;20092;-64
2024/04/01 10:22:13;;;;;;;22.33;10.93;;;10.50;99.90;;;;;;4994920;28;20045;-64
2024/04/01 10:25:16;;;;;;;25.15;11.32;;;10.60;99.90;;;;;;4998373;28;20054;-64
2024/04/01 10:28:38;;;;;;;19.08;10.35;;;10.60;99.90;;;;;;4964179;28;20058;-64
2024/04/01 10:31:22;;;;;;;21.38;11.02;;;10.70;99.90;;;;;;4934274;28;20072;-64
2024/04/01 10:34:16;;;;;;;26.83;10.52;;;10.70;99.90;;;;;;4998016;28;20446;-64
2024/04/01 10:37:12;;;;;;;18.48;10.80;;;10.70;99.90;;;;;;4989158;28;20038;-64
2024/04/01 10:39:49;;;;;;;19.83;11.23;;;10.70;99.90;;;;;;4989157;28;21366;-64
2024/04/01 10:42:45;;;;;;;22.23;11.18;;;10.70;99.90;;;;;;4988236;28;20141;-64
2024/04/01 10:45:25;;;;;;;17.17;11.32;;;10.70;99.90;;;;;;4991696;28;20049;-64
2024/04/01 10:48:13;;;;;;;17.27;11.68;;;10.60;99.90;;;;;;4998549;28;20046;-64
2024/04/01 10:51:32;;;;;;;17.67;12.40;;;10.70;99.90;;;;;;4994527;28;20058;-64
2024/04/01 10:54:05;;;;;;;21.53;10.40;;;10.70;99.90;;;;;;4979655;28;20058;-64
2024/04/01 10:57:27;;;;;;;21.20;10.90;;;10.70;99.90;;;;;;4996534;28;20378;-64
2024/04/01 11:00:18;;;;;;;23.08;11.45;;;10.70;99.90;;;;;;4950009;28;20055;-64
2024/04/01 11:03:17;;;;;;;24.90;12.10;;;10.80;99.90;;;;;;4944492;28;20039;-64
2024/04/01 11:05:59;;;;;;;25.10;11.17;;;10.70;99.90;;;;;;4994380;28;20208;-64
2024/04/01 11:08:47;;;;;;;25.83;11.20;;;10.80;99.90;;;;;;4998753;28;20128;-64
2024/04/01 11:11:31;;;;;;;18.25;11.48;;;10.90;99.90;;;;;;4976034;28;20496;-64
2024/04/01 11:13:59;;;;;;;23.75;13.02;;;11.00;99.90;;;;;;4989731;28;20057;-64
2024/04/01 11:16:30;;;;;;;18.23;12.30;;;11.00;99.90;;;;;;4996612;28;20058;-64
2024/04/01 11:19:26;;;;;;;22.40;11.45;;;11.10;99.90;;;;;;4992149;28;20373;-63
2024/04/01 11:21:57;;;;;;;16.23;10.75;;;11.10;99.90;;;;;;4995739;28;20050;-64
2024/04/01 11:24:47;;;;;;;13.52;9.98;;;11.10;99.90;;;;;;4992884;28;20511;-65
2024/04/01 11:27:59;;;;;;;21.63;11.23;;;11.10;99.90;;;;;;4993142;28;20048;-64
2024/04/01 11:30:34;;;;;;;16.83;10.48;;;11.20;99.90;;;;;;4986634;28;20466;-64
2024/04/01 11:33:07;;;;;;;16.55;10.00;;;11.20;99.90;;;;;;4997388;28;20125;-64
2024/04/01 11:35:48;;;;;;;18.40;10.55;;;11.20;99.90;;;;;;4985215;28;20046;-64
2024/04/01 11:38:33;;;;;;;18.08;11.60;;;11.30;99.90;;;;;;4995410;28;20046;-64
2024/04/01 11:41:02;;;;;;;17.67;10.73;;;11.30;99.90;;;;;;4981611;28;20050;-64
2024/04/01 11:43:32;;;;;;;19.58;11.48;;;11.30;99.90;;;;;;4977482;28;20049;-64
2024/04/01 11:45:58;;;;;;;19.15;12.23;;;11.40;99.90;;;;;;4991313;28;20196;-64
2024/04/01 11:48:25;;;;;;;22.33;12.63;;;11.30;99.90;;;;;;4995109;28;20097;-64
2024/04/01 11:50:53;;;;;;;16.83;12.18;;;11.30;99.90;;;;;;4992235;28;20428;-64
2024/04/01 11:53:19;;;;;;;20.33;12.85;;;11.30;99.90;;;;;;5013578;28;20057;-64
2024/04/01 11:55:58;;;;;;;19.17;11.93;;;11.20;99.90;;;;;;4995804;28;20069;-64
2024/04/01 11:58:24;;;;;;;27.58;11.18;;;11.20;99.90;;;;;;4989689;28;20054;-64
2024/04/01 12:00:51;;;;;;;22.70;13.05;;;11.20;99.90;;;;;;4991871;28;20462;-64
2024/04/01 12:03:17;;;;;;;19.60;12.50;;;11.20;99.90;;;;;;4994316;28;20120;-64
2024/04/01 12:05:53;;;;;;;20.98;12.90;;;11.10;99.90;;;;;;4998684;28;20130;-64
2024/04/01 12:08:30;;;;;;;15.90;11.70;;;11.20;99.90;;;;;;4988823;28;20061;-64
2024/04/01 12:10:58;;;;;;;19.70;12.88;;;11.10;99.90;;;;;;4991295;28;20052;-64
2024/04/01 12:13:28;;;;;;;19.90;11.73;;;11.20;99.90;;;;;;4986661;28;20046;-64
2024/04/01 12:15:54;;;;;;;17.33;12.18;;;11.20;99.90;;;;;;4997960;28;20104;-64
2024/04/01 12:18:23;;;;;;;18.52;11.75;;;11.20;99.90;;;;;;4992454;28;20045;-64
2024/04/01 12:20:53;;;;;;;18.83;12.48;;;11.10;99.90;;;;;;5000836;28;20049;-64
2024/04/01 12:23:25;;;;;;;18.52;12.25;;;11.10;99.90;;;;;;4986674;28;20053;-64
2024/04/01 12:25:51;;;;;;;20.77;12.63;;;11.10;99.90;;;;;;4987500;28;20400;-64
2024/04/01 12:28:19;;;;;;;26.98;12.88;;;11.10;99.90;;;;;;4989175;28;20054;-64
2024/04/01 12:30:51;;;;;;;31.95;12.45;;;11.10;99.90;;;;;;4997138;28;20043;-64
2024/04/01 12:33:19;;;;;;;26.85;12.13;;;11.10;99.90;;;;;;4986903;28;20072;-64
2024/04/01 12:35:45;;;;;;;23.95;11.35;;;10.90;99.90;;;;;;4991160;28;20042;-64
2024/04/01 12:38:13;;;;;;;26.85;11.85;;;10.90;99.90;;;;;;4994497;28;20400;-64
2024/04/01 12:40:46;;;;;;;30.58;10.98;;;10.90;99.90;;;;;;4990745;28;20519;-64
2024/04/01 12:43:15;;;;;;;19.05;11.15;;;10.80;99.90;;;;;;4995872;28;20080;-64
2024/04/01 12:45:46;;;;;;;19.05;11.45;;;10.80;99.90;;;;;;4972763;28;20166;-64
2024/04/01 12:48:16;;;;;;;22.20;11.30;;;10.80;99.90;;;;;;5001063;28;20602;-64